Sevastopol, Wisconsin
Current Conditions -  °F | °C
As of 1:15 PM on Friday 21 Nov 2014 (Local Time) from KSUE Reporting Station
Clear Clear  
Wind Chill: 11°   Ceiling: Unl
Heat Index: 25°   Visibility: 10mi
Dew Point:   Wind: 18mph
Humidity: 43%   Direction: 200°SSW
Pressure: 30.26"   Gusts: 22mph
Location:  44.7888°N, 87.4464°W
Report Text: KSUE 211915Z AUTO 20016G19KT 10SM CLR M04/M15 A3026 RMK AO1
Loading
Personal Weather Stations






























Interactive Weather Map New forecast layout! Learn more

10-Day Weather Forecast

Advertisements
Track Severe Weather on mobile